createdAt,value
2022-08-03T00:01:37.916Z,27.45
2022-08-03T00:04:06.429Z,27.42
2022-08-03T00:06:37.136Z,27.42
2022-08-03T00:09:07.991Z,27.38
2022-08-03T00:11:36.835Z,27.36
2022-08-03T00:14:07.327Z,27.34
2022-08-03T00:16:34.815Z,27.29
2022-08-03T00:19:02.613Z,27.29
2022-08-03T00:21:29.826Z,27.26
2022-08-03T00:23:57.214Z,27.23
2022-08-03T00:26:24.562Z,27.19
2022-08-03T00:28:51.908Z,27.14
2022-08-03T00:31:26.490Z,27.11
2022-08-03T00:34:06.922Z,27.08
2022-08-03T00:36:34.194Z,27.06
2022-08-03T00:39:01.711Z,27.00
2022-08-03T00:41:29.082Z,26.96
2022-08-03T00:43:56.508Z,26.94
2022-08-03T00:46:23.645Z,26.95
2022-08-03T00:48:51.515Z,26.91
2022-08-03T00:51:20.166Z,26.88
2022-08-03T00:53:47.591Z,26.88
2022-08-03T00:56:15.923Z,26.83
2022-08-03T00:58:45.440Z,26.83
2022-08-03T01:01:13.044Z,26.82
2022-08-03T01:03:40.944Z,26.78
2022-08-03T01:06:17.781Z,26.73
2022-08-03T01:08:54.855Z,26.66
2022-08-03T01:12:00.811Z,26.59
2022-08-03T01:14:41.854Z,26.61
2022-08-03T01:17:32.357Z,26.57
2022-08-03T01:20:08.469Z,26.63
2022-08-03T01:22:53.732Z,26.65
2022-08-03T01:25:42.167Z,26.64
2022-08-03T01:28:47.566Z,26.61
2022-08-03T01:31:19.334Z,26.58
2022-08-03T01:33:53.091Z,26.59
2022-08-03T01:36:34.157Z,26.57
2022-08-03T01:39:05.313Z,26.61
2022-08-03T01:41:35.495Z,26.67
2022-08-03T01:44:30.066Z,26.75
2022-08-03T01:46:54.659Z,26.78
2022-08-03T01:49:22.766Z,26.77
2022-08-03T01:51:58.553Z,26.70
2022-08-03T01:54:43.510Z,26.59
2022-08-03T01:57:11.702Z,26.58
2022-08-03T01:59:40.540Z,26.63
2022-08-03T02:02:27.823Z,26.58
2022-08-03T02:04:58.819Z,26.50
2022-08-03T02:07:27.459Z,26.49
2022-08-03T02:09:56.111Z,26.48
2022-08-03T02:12:28.050Z,26.52
2022-08-03T02:14:57.307Z,26.51
2022-08-03T02:17:39.466Z,26.47
2022-08-03T02:20:10.079Z,26.41
2022-08-03T02:22:40.558Z,26.38
2022-08-03T02:25:10.885Z,26.34
2022-08-03T02:27:43.781Z,26.34
2022-08-03T02:30:14.071Z,26.33
2022-08-03T02:32:46.141Z,26.32
2022-08-03T02:35:18.324Z,26.33
2022-08-03T02:37:50.736Z,26.36
2022-08-03T02:40:20.792Z,26.44
2022-08-03T02:42:51.759Z,26.47
2022-08-03T02:45:21.307Z,26.48
2022-08-03T02:47:53.588Z,26.48
2022-08-03T02:50:24.269Z,26.48
2022-08-03T02:52:53.503Z,26.43
2022-08-03T02:55:23.183Z,26.36
2022-08-03T02:57:52.026Z,26.30
2022-08-03T03:00:27.309Z,26.23
2022-08-03T03:03:00.658Z,26.19
2022-08-03T03:05:55.894Z,26.16
2022-08-03T03:08:26.793Z,26.17
2022-08-03T03:10:59.689Z,26.19
2022-08-03T03:13:29.254Z,26.21
2022-08-03T03:16:00.971Z,26.25
2022-08-03T03:18:31.334Z,26.31
2022-08-03T03:21:01.052Z,26.33
2022-08-03T03:23:29.460Z,26.31
2022-08-03T03:25:58.732Z,26.28
2022-08-03T03:28:26.073Z,26.28
2022-08-03T03:30:53.663Z,26.32
2022-08-03T03:33:22.352Z,26.35
2022-08-03T03:35:50.654Z,26.36
2022-08-03T03:38:19.063Z,26.37
2022-08-03T03:40:46.861Z,26.34
2022-08-03T03:43:14.131Z,26.32
2022-08-03T03:45:45.323Z,26.30
2022-08-03T03:48:12.810Z,26.28
2022-08-03T03:50:41.166Z,26.26
2022-08-03T03:53:12.611Z,26.26
2022-08-03T03:55:58.925Z,26.28
2022-08-03T03:58:28.126Z,26.25
2022-08-03T04:00:55.410Z,26.23
2022-08-03T04:03:22.774Z,26.23
2022-08-03T04:06:08.800Z,26.20
2022-08-03T04:08:54.365Z,26.21
2022-08-03T04:11:34.720Z,26.23
2022-08-03T04:14:10.203Z,26.24
2022-08-03T04:16:43.876Z,26.26
2022-08-03T04:19:23.132Z,26.29
2022-08-03T04:21:53.584Z,26.32
2022-08-03T04:24:28.253Z,26.28
2022-08-03T04:26:57.784Z,26.28
2022-08-03T04:29:26.859Z,26.30
2022-08-03T04:31:56.142Z,26.35
2022-08-03T04:34:23.315Z,26.39
2022-08-03T04:36:56.090Z,26.43
2022-08-03T04:39:27.502Z,26.48
2022-08-03T04:42:07.329Z,26.52
2022-08-03T04:44:42.345Z,26.57
2022-08-03T04:47:09.734Z,26.63
2022-08-03T04:49:38.522Z,26.68
2022-08-03T04:52:08.839Z,26.75
2022-08-03T04:54:48.803Z,26.83
2022-08-03T04:57:22.955Z,26.91
2022-08-03T05:00:01.332Z,26.93
2022-08-03T05:02:30.590Z,27.05
2022-08-03T05:04:58.098Z,27.11
2022-08-03T05:07:25.635Z,27.16
2022-08-03T05:10:01.764Z,27.39
2022-08-03T05:12:33.750Z,27.82
2022-08-03T05:15:02.025Z,29.04
2022-08-03T05:17:29.375Z,31.27
2022-08-03T05:19:57.055Z,33.44
2022-08-03T05:22:24.539Z,34.39
2022-08-03T05:24:51.836Z,33.62
2022-08-03T05:27:22.151Z,32.11
2022-08-03T05:29:50.873Z,31.25
2022-08-03T05:32:18.667Z,30.59
2022-08-03T05:34:46.243Z,30.06
2022-08-03T05:37:13.369Z,29.81
2022-08-03T05:39:40.685Z,30.54
2022-08-03T05:42:08.219Z,32.37
2022-08-03T05:44:38.852Z,34.31
2022-08-03T05:47:06.518Z,35.91
2022-08-03T05:49:33.945Z,36.80
2022-08-03T05:52:13.369Z,37.54
2022-08-03T05:54:55.315Z,37.87
2022-08-03T05:57:24.947Z,38.30
2022-08-03T05:59:53.934Z,38.76
2022-08-03T06:02:27.452Z,38.64
2022-08-03T06:04:54.877Z,39.51
2022-08-03T06:07:22.071Z,39.60
2022-08-03T06:10:34.084Z,39.39
2022-08-03T06:12:36.506Z,38.66
2022-08-03T06:15:07.873Z,39.13
2022-08-03T06:17:46.399Z,39.14
2022-08-03T06:20:13.719Z,38.62
2022-08-03T06:22:50.980Z,38.53
2022-08-03T06:25:21.206Z,39.17
2022-08-03T06:27:48.704Z,39.51
2022-08-03T06:30:21.021Z,38.70
2022-08-03T06:32:52.195Z,38.18
2022-08-03T06:35:20.297Z,37.92
2022-08-03T06:37:50.792Z,38.86
2022-08-03T06:40:21.764Z,38.34
2022-08-03T06:42:51.777Z,37.84
2022-08-03T06:45:18.936Z,38.25
2022-08-03T06:47:46.185Z,37.83
2022-08-03T06:50:17.156Z,37.50
2022-08-03T06:52:45.622Z,37.54
2022-08-03T06:55:12.843Z,37.24
2022-08-03T06:57:40.069Z,37.38
2022-08-03T07:00:12.299Z,37.24
2022-08-03T07:02:40.445Z,37.08
2022-08-03T07:05:09.311Z,36.58
2022-08-03T07:07:37.156Z,36.11
2022-08-03T07:10:06.103Z,36.05
2022-08-03T07:12:34.254Z,35.94
2022-08-03T07:15:03.494Z,35.86
2022-08-03T07:17:33.334Z,35.66
2022-08-03T07:20:04.697Z,36.04
2022-08-03T07:22:32.034Z,36.06
2022-08-03T07:24:59.517Z,36.06
2022-08-03T07:27:28.773Z,36.15
2022-08-03T07:29:57.015Z,36.22
2022-08-03T07:32:24.985Z,35.98
2022-08-03T07:34:55.725Z,35.86
2022-08-03T07:37:25.734Z,35.64
2022-08-03T07:39:52.858Z,35.65
2022-08-03T07:42:20.771Z,35.34
2022-08-03T07:44:48.028Z,35.31
2022-08-03T07:50:17.782Z,35.21
2022-08-03T07:52:52.275Z,34.84
2022-08-03T07:55:24.697Z,34.84
2022-08-03T07:58:01.654Z,34.82
2022-08-03T08:00:29.469Z,34.57
2022-08-03T08:02:56.882Z,34.37
2022-08-03T08:05:24.603Z,34.24
2022-08-03T08:07:51.954Z,34.29
2022-08-03T08:10:19.553Z,34.09
2022-08-03T08:12:46.874Z,34.04
2022-08-03T08:15:14.157Z,33.93
2022-08-03T08:18:01.695Z,34.12
2022-08-03T08:20:33.259Z,33.98
2022-08-03T08:23:17.298Z,34.14
2022-08-03T08:25:56.376Z,34.37
2022-08-03T08:28:32.511Z,34.45
2022-08-03T08:31:02.063Z,34.50
2022-08-03T08:33:47.894Z,34.70
2022-08-03T08:36:16.896Z,34.78
2022-08-03T08:38:45.347Z,34.84
2022-08-03T08:41:14.548Z,34.15
2022-08-03T08:43:42.668Z,34.67
2022-08-03T08:46:23.355Z,34.79
2022-08-03T08:48:52.574Z,34.45
2022-08-03T08:51:21.882Z,34.04
2022-08-03T08:53:52.879Z,33.53
2022-08-03T08:56:23.150Z,33.57
2022-08-03T08:58:58.662Z,33.48
2022-08-03T09:01:26.284Z,33.58
2022-08-03T09:03:54.498Z,33.68
2022-08-03T09:06:23.112Z,33.61
2022-08-03T09:08:50.408Z,33.25
2022-08-03T09:11:21.750Z,33.06
2022-08-03T09:14:10.323Z,33.14
2022-08-03T09:17:02.554Z,33.06
2022-08-03T09:19:31.494Z,32.52
2022-08-03T09:22:13.258Z,31.94
2022-08-03T09:25:35.281Z,31.66
2022-08-03T09:27:53.433Z,31.43
2022-08-03T09:30:33.917Z,31.00
2022-08-03T09:33:08.413Z,30.72
2022-08-03T09:35:54.397Z,30.46
2022-08-03T09:38:24.437Z,30.36
2022-08-03T09:40:55.901Z,30.29
2022-08-03T09:43:26.413Z,30.31
2022-08-03T09:46:03.808Z,30.24
2022-08-03T09:48:32.168Z,30.24
2022-08-03T09:51:13.180Z,30.25
2022-08-03T09:53:58.460Z,30.26
2022-08-03T09:56:43.414Z,30.25
2022-08-03T09:59:23.976Z,30.24
2022-08-03T10:01:51.183Z,30.25
2022-08-03T10:04:18.480Z,30.16
2022-08-03T10:06:47.154Z,30.22
2022-08-03T10:09:17.106Z,30.24
2022-08-03T10:11:44.990Z,30.43
2022-08-03T10:14:19.683Z,30.48
2022-08-03T10:16:48.589Z,30.50
2022-08-03T10:19:16.952Z,30.40
2022-08-03T10:21:58.226Z,30.38
2022-08-03T10:24:28.481Z,30.50
2022-08-03T10:27:07.680Z,30.45
2022-08-03T10:29:39.992Z,30.44
2022-08-03T10:32:21.480Z,30.51
2022-08-03T10:35:00.225Z,30.52
2022-08-03T10:37:32.627Z,30.54
2022-08-03T10:40:01.142Z,30.48
2022-08-03T10:42:31.539Z,30.40
2022-08-03T10:45:09.995Z,30.40
2022-08-03T10:47:37.883Z,30.40
2022-08-03T10:50:06.408Z,30.27
2022-08-03T10:52:36.081Z,30.27
2022-08-03T10:55:51.185Z,30.03
2022-08-03T10:58:53.479Z,30.00
2022-08-03T11:01:58.498Z,29.89
2022-08-03T11:04:26.983Z,29.92
2022-08-03T11:07:16.227Z,29.93
2022-08-03T11:09:48.800Z,29.94
2022-08-03T11:12:32.233Z,30.15
2022-08-03T11:15:02.777Z,30.28
2022-08-03T11:17:30.596Z,30.25
2022-08-03T11:19:58.636Z,30.35
2022-08-03T11:22:46.363Z,30.31
2022-08-03T11:25:53.357Z,30.22
2022-08-03T11:28:28.825Z,30.22
2022-08-03T11:30:56.158Z,30.17
2022-08-03T11:33:32.490Z,30.19
2022-08-03T11:36:02.698Z,30.36
2022-08-03T11:38:30.507Z,30.34
2022-08-03T11:40:57.706Z,30.54
2022-08-03T11:43:31.556Z,30.52
2022-08-03T11:46:12.782Z,30.59
2022-08-03T11:48:44.948Z,30.48
2022-08-03T11:51:29.561Z,30.42
2022-08-03T11:54:04.922Z,30.61
2022-08-03T11:56:45.591Z,30.70
2022-08-03T11:59:20.737Z,30.72
2022-08-03T12:01:49.345Z,30.86
2022-08-03T12:04:17.810Z,30.94
2022-08-03T12:07:01.396Z,30.93
2022-08-03T12:09:28.759Z,30.90
2022-08-03T12:12:00.613Z,30.74
2022-08-03T12:14:49.817Z,30.64
2022-08-03T12:17:19.254Z,30.55
2022-08-03T12:19:46.808Z,30.71
2022-08-03T12:22:16.239Z,30.77
2022-08-03T12:24:46.921Z,30.98
2022-08-03T12:27:28.281Z,31.04
2022-08-03T12:29:59.359Z,31.14
2022-08-03T12:32:28.080Z,31.10
2022-08-03T12:35:00.036Z,30.97
2022-08-03T12:37:28.005Z,31.01
2022-08-03T12:40:01.751Z,31.03
2022-08-03T12:42:34.911Z,30.93
2022-08-03T12:45:21.544Z,30.73
2022-08-03T12:47:58.843Z,30.72
2022-08-03T12:50:29.018Z,30.79
2022-08-03T12:52:58.111Z,30.61
2022-08-03T12:55:27.806Z,30.64
2022-08-03T12:57:55.056Z,30.64
2022-08-03T13:00:29.453Z,30.67
2022-08-03T13:03:38.283Z,30.77
2022-08-03T13:05:53.517Z,30.50
2022-08-03T13:08:23.182Z,30.42
2022-08-03T13:10:50.791Z,30.33
2022-08-03T13:13:18.026Z,30.37
2022-08-03T13:15:48.103Z,30.23
2022-08-03T13:18:17.216Z,30.15
2022-08-03T13:20:45.060Z,30.10
2022-08-03T13:23:13.885Z,30.03
2022-08-03T13:25:55.585Z,30.05
2022-08-03T13:28:23.646Z,30.16
2022-08-03T13:30:51.012Z,30.41
2022-08-03T13:33:18.516Z,30.61
2022-08-03T13:35:45.793Z,30.73
2022-08-03T13:38:12.939Z,30.77
2022-08-03T13:40:42.625Z,30.83
2022-08-03T13:43:09.857Z,30.95
2022-08-03T13:45:37.189Z,30.76
2022-08-03T13:48:04.829Z,30.55
2022-08-03T13:50:32.508Z,30.50
2022-08-03T13:52:59.640Z,30.47
2022-08-03T13:55:27.008Z,30.42
2022-08-03T13:58:02.243Z,30.44
2022-08-03T14:00:35.260Z,30.39
2022-08-03T14:03:09.552Z,30.47
2022-08-03T14:05:40.466Z,30.57
2022-08-03T14:08:08.159Z,30.70
2022-08-03T14:10:37.513Z,30.69
2022-08-03T14:13:05.630Z,30.70
2022-08-03T14:15:38.315Z,30.61
2022-08-03T14:18:15.323Z,30.48
2022-08-03T14:20:49.102Z,30.42
2022-08-03T14:23:21.959Z,30.33
2022-08-03T14:25:52.084Z,30.40
2022-08-03T14:28:23.287Z,30.49
2022-08-03T14:30:52.679Z,30.52
2022-08-03T14:33:20.241Z,30.65
2022-08-03T14:35:48.337Z,30.76
2022-08-03T14:38:15.689Z,30.85
2022-08-03T14:40:43.095Z,30.81
2022-08-03T14:43:10.391Z,30.63
2022-08-03T14:45:37.515Z,30.65
2022-08-03T14:50:30.828Z,30.50
2022-08-03T14:50:56.934Z,30.21
2022-08-03T14:53:25.920Z,30.08
2022-08-03T14:55:53.713Z,29.96
2022-08-03T14:58:25.592Z,29.87
2022-08-03T15:00:55.014Z,29.76
2022-08-03T15:03:24.996Z,29.78
2022-08-03T15:05:54.335Z,29.81
2022-08-03T15:08:23.844Z,29.74
2022-08-03T15:10:51.802Z,29.65
2022-08-03T15:13:24.249Z,29.68
2022-08-03T15:15:52.288Z,29.64
2022-08-03T15:18:22.198Z,29.64
2022-08-03T15:20:50.976Z,29.50
2022-08-03T15:23:18.931Z,29.43
2022-08-03T15:26:29.454Z,29.41
2022-08-03T15:28:34.436Z,29.34
2022-08-03T15:31:05.780Z,29.37
2022-08-03T15:33:33.527Z,29.35
2022-08-03T15:36:03.572Z,29.30
2022-08-03T15:38:30.990Z,29.37
2022-08-03T15:40:59.321Z,29.51
2022-08-03T15:43:26.631Z,29.60
2022-08-03T15:46:26.482Z,29.64
2022-08-03T15:48:41.885Z,29.61
2022-08-03T15:51:09.479Z,29.53
2022-08-03T15:53:38.120Z,29.30
2022-08-03T15:56:11.315Z,29.22
2022-08-03T15:59:03.690Z,29.17
2022-08-03T16:01:28.591Z,29.19
2022-08-03T16:03:55.811Z,29.24
2022-08-03T16:06:35.534Z,29.25
2022-08-03T16:09:23.558Z,29.29
2022-08-03T16:11:55.756Z,29.37
2022-08-03T16:14:32.687Z,29.46
2022-08-03T16:17:03.630Z,29.56
2022-08-03T16:19:30.790Z,29.54
2022-08-03T16:21:58.014Z,29.41
2022-08-03T16:24:27.743Z,29.28
2022-08-03T16:26:56.095Z,29.28
2022-08-03T16:29:23.779Z,29.06
2022-08-03T16:31:52.392Z,29.04
2022-08-03T16:34:20.652Z,29.06
2022-08-03T16:36:48.084Z,29.00
2022-08-03T16:39:15.573Z,29.01
2022-08-03T16:41:54.092Z,28.99
2022-08-03T16:44:30.153Z,29.04
2022-08-03T16:46:58.123Z,29.01
2022-08-03T16:49:55.544Z,28.93
2022-08-03T16:52:13.231Z,28.83
2022-08-03T16:54:40.859Z,28.73
2022-08-03T16:57:12.494Z,28.63
2022-08-03T16:59:39.737Z,28.66
2022-08-03T17:02:10.403Z,28.65
2022-08-03T17:04:40.097Z,28.54
2022-08-03T17:07:08.852Z,28.45
2022-08-03T17:09:38.151Z,28.44
2022-08-03T17:12:07.230Z,28.37
2022-08-03T17:14:34.549Z,28.32
2022-08-03T17:17:04.061Z,28.33
2022-08-03T17:19:32.759Z,28.26
2022-08-03T17:22:09.094Z,28.22
2022-08-03T17:24:41.196Z,28.31
2022-08-03T17:28:42.363Z,28.37
2022-08-03T17:30:09.645Z,28.42
2022-08-03T17:32:42.901Z,28.42
2022-08-03T17:35:21.290Z,28.34
2022-08-03T17:37:58.406Z,28.28
2022-08-03T17:40:31.677Z,28.23
2022-08-03T17:43:00.976Z,28.19
2022-08-03T17:45:52.011Z,28.13
2022-08-03T17:48:18.586Z,28.14
2022-08-03T17:50:55.910Z,28.15
2022-08-03T17:53:33.298Z,28.13
2022-08-03T17:56:40.293Z,28.09
2022-08-03T17:59:08.606Z,28.09
2022-08-03T18:05:17.943Z,27.94
2022-08-03T18:08:01.455Z,27.90
2022-08-03T18:10:35.236Z,27.88
2022-08-03T18:13:14.418Z,27.85
2022-08-03T18:15:58.848Z,27.83
2022-08-03T18:18:43.216Z,27.76
2022-08-03T18:21:16.955Z,27.74
2022-08-03T18:23:46.113Z,27.73
2022-08-03T18:26:18.325Z,27.73
2022-08-03T18:28:45.512Z,27.68
2022-08-03T18:31:59.895Z,27.66
2022-08-03T18:34:19.729Z,27.65
2022-08-03T18:36:55.812Z,27.65
2022-08-03T18:39:23.512Z,27.66
2022-08-03T18:41:51.942Z,27.65
2022-08-03T18:44:46.448Z,27.65
2022-08-03T18:47:50.878Z,27.66
2022-08-03T18:50:34.039Z,27.71
2022-08-03T18:54:04.025Z,27.69
2022-08-03T18:56:22.406Z,27.70
2022-08-03T18:59:38.920Z,27.71
2022-08-03T19:02:09.244Z,27.72
2022-08-03T19:04:47.000Z,27.78
2022-08-03T19:07:23.384Z,27.76
2022-08-03T19:09:58.658Z,27.74
2022-08-03T19:12:48.651Z,27.76
2022-08-03T19:15:15.976Z,27.79
2022-08-03T19:17:53.696Z,27.80
2022-08-03T19:20:25.167Z,27.80
2022-08-03T19:22:54.144Z,27.83
2022-08-03T19:25:34.849Z,27.88
2022-08-03T19:28:06.036Z,27.90
2022-08-03T19:33:29.847Z,27.97
2022-08-03T19:36:01.536Z,27.97
2022-08-03T19:38:29.811Z,27.97
2022-08-03T19:41:04.504Z,28.00
2022-08-03T19:43:52.542Z,27.98
2022-08-03T19:46:31.642Z,27.95
2022-08-03T19:49:10.724Z,27.93
2022-08-03T19:51:58.391Z,27.93
2022-08-03T19:54:39.671Z,27.93
2022-08-03T19:57:19.478Z,27.93
2022-08-03T19:59:50.066Z,27.96
2022-08-03T20:02:27.176Z,27.95
2022-08-03T20:04:57.474Z,27.95
2022-08-03T20:07:26.540Z,27.95
2022-08-03T20:09:56.453Z,27.94
2022-08-03T20:12:32.149Z,27.94
2022-08-03T20:15:04.271Z,27.90
2022-08-03T20:17:54.670Z,27.92
2022-08-03T20:20:28.806Z,27.92
2022-08-03T20:22:58.421Z,27.93
2022-08-03T20:25:37.934Z,27.91
2022-08-03T20:28:13.865Z,27.88
2022-08-03T20:30:47.496Z,27.87
2022-08-03T20:36:04.518Z,27.80
2022-08-03T20:38:31.947Z,27.81
2022-08-03T20:40:59.326Z,27.81
2022-08-03T20:43:27.472Z,27.77
2022-08-03T20:46:01.138Z,27.74
2022-08-03T20:48:48.536Z,27.74
2022-08-03T20:51:19.966Z,27.72
2022-08-03T20:53:59.485Z,27.72
2022-08-03T20:56:34.608Z,27.71
2022-08-03T20:59:04.553Z,27.70
2022-08-03T21:01:36.355Z,27.68
2022-08-03T21:04:07.056Z,27.66
2022-08-03T21:06:42.111Z,27.66
2022-08-03T21:09:19.819Z,27.67
2022-08-03T21:11:52.724Z,27.68
2022-08-03T21:13:02.301Z,27.93
2022-08-03T21:13:05.488Z,28.02
2022-08-03T21:13:07.091Z,27.82
2022-08-03T21:14:28.066Z,27.70
2022-08-03T21:16:58.362Z,27.72
2022-08-03T21:19:30.605Z,27.68
2022-08-03T21:21:59.369Z,27.67
2022-08-03T21:24:30.750Z,27.64
2022-08-03T21:26:58.782Z,27.65
2022-08-03T21:29:27.218Z,27.68
2022-08-03T21:31:55.079Z,27.74
2022-08-03T21:34:23.655Z,27.77
2022-08-03T21:36:50.960Z,27.79
2022-08-03T21:39:18.206Z,27.80
2022-08-03T21:41:45.658Z,27.82
2022-08-03T21:44:12.813Z,27.83
2022-08-03T21:46:41.398Z,27.83
2022-08-03T21:50:02.669Z,27.81
2022-08-03T21:52:00.778Z,27.81
2022-08-03T21:54:36.455Z,27.79
2022-08-03T21:57:06.336Z,27.80
2022-08-03T21:59:38.242Z,27.84
2022-08-03T22:02:22.706Z,27.87
2022-08-03T22:04:55.552Z,27.87
2022-08-03T22:07:28.811Z,27.86
2022-08-03T22:09:57.735Z,27.86
2022-08-03T22:12:26.851Z,27.88
2022-08-03T22:15:00.219Z,27.93
2022-08-03T22:17:54.637Z,27.92
2022-08-03T22:20:19.517Z,27.92
2022-08-03T22:22:55.174Z,27.91
2022-08-03T22:25:29.863Z,27.92
2022-08-03T22:28:00.554Z,27.93
2022-08-03T22:30:28.579Z,27.92
2022-08-03T22:32:56.496Z,27.93
2022-08-03T22:35:27.707Z,27.96
2022-08-03T22:37:57.246Z,27.92
2022-08-03T22:40:26.174Z,27.89
2022-08-03T22:42:54.711Z,27.84
2022-08-03T22:46:07.301Z,27.82
2022-08-03T22:48:10.026Z,27.80
2022-08-03T22:50:37.500Z,27.76
2022-08-03T22:53:06.449Z,27.73
2022-08-03T22:55:33.699Z,27.72
2022-08-03T22:58:00.788Z,27.69
2022-08-03T23:00:27.925Z,27.69
2022-08-03T23:02:57.200Z,27.68
2022-08-03T23:06:01.825Z,27.72
2022-08-03T23:08:21.921Z,27.76
2022-08-03T23:10:50.802Z,27.82
2022-08-03T23:13:19.216Z,27.86
2022-08-03T23:15:57.955Z,27.85
2022-08-03T23:18:28.877Z,27.86
2022-08-03T23:20:59.879Z,27.87
2022-08-03T23:23:29.392Z,27.86
2022-08-03T23:26:13.556Z,27.82
2022-08-03T23:28:45.399Z,27.80
2022-08-03T23:31:18.908Z,27.77
2022-08-03T23:33:47.352Z,27.71
2022-08-03T23:36:30.753Z,27.69
2022-08-03T23:39:02.392Z,27.62
2022-08-03T23:41:31.464Z,27.54
2022-08-03T23:44:01.069Z,27.49
2022-08-03T23:46:30.580Z,27.54
2022-08-03T23:49:00.906Z,27.55
2022-08-03T23:51:45.166Z,27.51
2022-08-03T23:54:41.763Z,27.44
2022-08-03T23:57:46.322Z,27.34
